Weather at Milano Linate Airport

Public forecast

Using degrees Celsius for public forecast. Weather courtesy of forecast.io.

Current aviation weather report (METAR) for Milano Linate Airport

Retrieved 2021/04/21 08:20 UTC (21 minutes ago):

LIML 210820Z 28004KT 210V330 CAVOK 15/06 Q1018 NOSIG

Aviation forecast (TAF) for Milano Linate Airport

Retrieved 2021/04/21 06:00 UTC (3 hours ago):

TAF LIML 210500Z 2106/2206 VRB05KT 9999 FEW050